Time;durP1;ratioP1;P1;durP2;ratioP2;P2;SDS_P1;SDS_P2;PMS_P1;PMS_P2;Temp;Humidity;BMP_temperature;BMP_pressure;BME280_temperature;BME280_humidity;BME280_pressure;Samples;Min_cycle;Max_cycle;Signal;HPM_P1;HPM_P2
2023/05/25 00:04:53;;;;;;;12.85;8.05;;;;;;;25.68;38.81;101167.75;20976391;28;20033;-69
2023/05/25 00:14:57;;;;;;;10.55;7.97;;;;;;;25.54;38.91;101136.91;20942724;28;20029;-69
2023/05/25 00:25:01;;;;;;;10.13;7.25;;;;;;;25.78;39.04;101178.00;20982679;28;20507;-70
2023/05/25 00:35:06;;;;;;;12.90;8.10;;;;;;;25.78;39.18;101184.41;20978680;28;20049;-68
2023/05/25 00:45:11;;;;;;;10.07;7.35;;;;;;;25.77;39.25;101196.78;20970644;28;20561;-68
2023/05/25 00:55:15;;;;;;;12.15;8.15;;;;;;;25.48;39.27;101215.78;20935070;28;20037;-67
2023/05/25 01:05:17;;;;;;;10.43;8.02;;;;;;;25.67;39.30;101267.00;20990689;28;20491;-67
2023/05/25 01:15:19;;;;;;;13.80;7.85;;;;;;;25.73;40.43;101292.97;20934246;28;20041;-66
2023/05/25 01:25:36;;;;;;;12.80;9.00;;;;;;;25.80;40.06;101341.13;20937004;28;20053;-67
2023/05/25 01:35:39;;;;;;;14.18;8.60;;;;;;;25.84;39.79;101367.38;20927841;28;20064;-65
2023/05/25 01:45:43;;;;;;;11.35;7.57;;;;;;;25.75;39.95;101367.22;20920455;28;20053;-65
2023/05/25 01:56:04;;;;;;;13.38;8.05;;;;;;;25.65;40.07;101386.97;20918788;28;20554;-66
2023/05/25 02:06:06;;;;;;;12.48;7.65;;;;;;;25.75;39.85;101414.88;20946739;28;20040;-66
2023/05/25 02:16:07;;;;;;;10.40;8.20;;;;;;;25.87;39.82;101438.84;20915681;28;20059;-67
2023/05/25 02:26:08;;;;;;;10.82;8.60;;;;;;;25.85;39.56;101433.56;20937757;28;20044;-67
2023/05/25 02:36:12;;;;;;;8.70;7.65;;;;;;;25.84;39.90;101434.66;20945230;28;20051;-66
2023/05/25 02:46:14;;;;;;;10.35;7.78;;;;;;;25.84;39.82;101452.34;20991532;28;20404;-66
2023/05/25 02:56:15;;;;;;;11.02;8.02;;;;;;;25.63;39.94;101410.84;20924578;28;20052;-67
2023/05/25 03:06:18;;;;;;;9.55;7.75;;;;;;;25.78;39.91;101455.50;20958965;28;20080;-66
2023/05/25 03:16:19;;;;;;;10.23;7.38;;;;;;;25.84;39.68;101479.53;20957594;28;20044;-66
2023/05/25 03:26:21;;;;;;;9.93;6.85;;;;;;;25.84;40.03;101504.75;20948428;28;20371;-67
2023/05/25 03:36:31;;;;;;;8.98;6.75;;;;;;;25.84;39.91;101515.97;20934359;28;20091;-67
2023/05/25 03:46:32;;;;;;;11.20;7.28;;;;;;;25.78;39.86;101522.78;20935521;28;20032;-66
2023/05/25 03:56:34;;;;;;;7.22;6.45;;;;;;;25.82;39.61;101555.53;20933669;28;20048;-66
2023/05/25 04:06:36;;;;;;;7.47;6.68;;;;;;;25.80;39.70;101573.81;20974659;28;20373;-67
2023/05/25 04:16:41;;;;;;;7.93;6.63;;;;;;;25.79;39.62;101589.75;20977703;28;20047;-67
2023/05/25 04:26:45;;;;;;;6.95;6.25;;;;;;;25.62;39.64;101566.16;20993066;28;20153;-68
2023/05/25 04:36:46;;;;;;;8.07;6.93;;;;;;;25.77;39.49;101592.03;20919139;28;20049;-67
2023/05/25 04:46:52;;;;;;;6.53;5.38;;;;;;;25.76;39.37;101611.97;20976817;28;20082;-66
2023/05/25 04:56:53;;;;;;;7.70;6.15;;;;;;;25.40;39.68;101569.47;20976064;28;20488;-66
2023/05/25 05:06:58;;;;;;;6.40;5.53;;;;;;;25.77;39.83;101631.28;20982749;28;20048;-66
2023/05/25 05:17:00;;;;;;;6.63;5.85;;;;;;;25.51;39.64;101583.03;20978475;28;20118;-66
2023/05/25 05:27:02;;;;;;;8.18;5.40;;;;;;;25.75;39.77;101613.91;20965985;28;20048;-66
2023/05/25 05:37:04;;;;;;;6.82;6.13;;;;;;;25.74;39.74;101620.63;20993732;28;20040;-65
2023/05/25 05:47:05;;;;;;;7.80;5.93;;;;;;;25.69;40.05;101617.88;20938451;28;20052;-65
2023/05/25 05:57:06;;;;;;;7.45;5.55;;;;;;;25.64;39.96;101615.13;20912775;28;20091;-65
2023/05/25 06:07:08;;;;;;;6.32;5.13;;;;;;;25.69;39.89;101631.91;20963935;28;20052;-65
2023/05/25 06:17:09;;;;;;;5.93;5.18;;;;;;;25.68;40.13;101638.66;20910961;28;20122;-65
2023/05/25 06:27:12;;;;;;;7.03;4.93;;;;;;;25.59;39.68;101632.03;20916494;28;20044;-65
2023/05/25 06:37:14;;;;;;;5.68;5.07;;;;;;;25.67;39.77;101652.97;20992673;28;20036;-64
2023/05/25 06:47:15;;;;;;;6.65;5.28;;;;;;;25.65;39.70;101664.47;20978056;28;20105;-64
2023/05/25 06:57:17;;;;;;;8.75;5.47;;;;;;;25.32;39.88;101610.16;20968548;28;20044;-65
2023/05/25 07:07:18;;;;;;;5.03;4.53;;;;;;;25.62;39.76;101673.47;20990699;28;20049;-64
2023/05/25 07:17:20;;;;;;;6.15;4.80;;;;;;;25.35;39.95;101657.19;20973897;28;20044;-65
2023/05/25 07:27:24;;;;;;;5.55;4.35;;;;;;;25.48;40.13;101678.09;21041190;28;20400;-65
2023/05/25 07:37:28;;;;;;;4.97;4.47;;;;;;;25.54;39.62;101710.53;20975111;28;20041;-65
2023/05/25 07:47:30;;;;;;;5.07;3.92;;;;;;;25.51;39.57;101717.56;21004405;28;20098;-66
2023/05/25 07:57:31;;;;;;;5.57;4.45;;;;;;;25.44;39.82;101705.03;20927811;28;20048;-66
2023/05/25 08:07:33;;;;;;;4.90;4.20;;;;;;;25.38;39.82;101711.78;20993898;28;20037;-64
2023/05/25 08:17:34;;;;;;;5.78;4.25;;;;;;;25.45;39.65;101745.94;20919257;28;20530;-65
2023/05/25 08:27:36;;;;;;;4.45;3.95;;;;;;;25.44;39.51;101752.66;20919300;28;20037;-65
2023/05/25 08:37:42;;;;;;;3.83;3.15;;;;;;;25.21;39.70;101734.63;20932104;28;20033;-65
2023/05/25 08:47:47;;;;;;;4.40;3.90;;;;;;;25.36;39.87;101748.50;20848807;28;20046;-65
2023/05/25 08:58:06;;;;;;;5.07;3.85;;;;;;;25.33;39.65;101772.34;20837806;28;20115;-65
2023/05/25 09:08:09;;;;;;;3.80;3.40;;;;;;;25.33;40.06;101794.75;20899813;28;20040;-65
2023/05/25 09:18:13;;;;;;;3.40;2.88;;;;;;;25.28;39.64;101789.19;20875700;28;20107;-66
2023/05/25 09:28:18;;;;;;;3.45;3.05;;;;;;;25.27;39.69;101795.09;20830397;28;20045;-65
2023/05/25 09:38:20;;;;;;;3.33;3.03;;;;;;;25.23;39.62;101822.84;20834864;28;20492;-66
2023/05/25 09:48:21;;;;;;;3.65;3.10;;;;;;;25.15;39.68;101836.59;20912668;28;20041;-66
2023/05/25 09:58:23;;;;;;;3.70;2.72;;;;;;;25.13;39.57;101853.72;20944100;28;20040;-66
2023/05/25 10:08:26;;;;;;;3.20;2.85;;;;;;;25.23;39.76;101872.41;20921604;28;20392;-66
2023/05/25 10:18:34;;;;;;;2.88;2.35;;;;;;;25.22;39.65;101894.00;20923251;28;20044;-64
2023/05/25 10:28:38;;;;;;;4.03;2.85;;;;;;;25.20;39.52;101896.25;20888914;28;20146;-64
2023/05/25 10:38:43;;;;;;;4.30;3.30;;;;;;;25.18;39.57;101903.25;20884256;28;20175;-65
2023/05/25 10:48:59;;;;;;;3.75;2.72;;;;;;;25.16;39.52;101911.97;20898666;28;20076;-64
2023/05/25 10:59:00;;;;;;;2.70;2.10;;;;;;;25.15;39.48;101906.63;20896032;28;20127;-65
2023/05/25 11:09:02;;;;;;;2.95;2.40;;;;;;;25.16;39.75;101933.53;20903624;28;20729;-65
2023/05/25 11:19:13;;;;;;;3.05;2.40;;;;;;;25.11;40.02;101942.78;20910586;28;20116;-66
2023/05/25 11:29:15;;;;;;;3.05;2.20;;;;;;;25.16;39.33;101955.94;20904599;28;20128;-65
2023/05/25 11:39:21;;;;;;;3.20;2.25;;;;;;;25.13;39.67;101973.31;20900970;28;20201;-66
2023/05/25 11:49:24;;;;;;;2.72;2.17;;;;;;;25.12;39.68;101972.47;20900500;28;20159;-66
2023/05/25 11:59:26;;;;;;;2.35;2.10;;;;;;;25.11;39.73;101965.19;20899343;28;20752;-65
2023/05/25 12:09:28;;;;;;;3.05;2.28;;;;;;;25.13;39.86;101981.72;20903688;28;20135;-66
2023/05/25 12:19:29;;;;;;;2.17;1.98;;;;;;;25.07;39.66;101983.66;20894098;28;20117;-65
2023/05/25 12:29:30;;;;;;;2.58;2.22;;;;;;;25.15;39.61;101997.09;20903759;28;20182;-64
2023/05/25 12:39:37;;;;;;;2.58;2.15;;;;;;;25.08;39.24;102005.81;20895260;28;20183;-66
2023/05/25 12:50:00;;;;;;;1.92;1.73;;;;;;;25.15;39.17;102021.47;20899799;28;20135;-65
2023/05/25 13:00:10;;;;;;;2.25;1.80;;;;;;;25.16;39.72;102024.00;20903840;28;21693;-65
2023/05/25 13:10:14;;;;;;;2.35;1.83;;;;;;;25.17;39.19;102024.84;20897583;28;20170;-65
2023/05/25 13:20:23;;;;;;;3.00;2.10;;;;;;;25.07;39.65;102006.06;20894303;28;20171;-64
2023/05/25 13:30:28;;;;;;;2.17;1.80;;;;;;;24.93;39.06;101993.78;20896354;28;20515;-65
2023/05/25 13:40:32;;;;;;;1.98;1.77;;;;;;;25.13;39.40;101996.56;20887346;28;20132;-65
2023/05/25 13:50:36;;;;;;;1.75;1.55;;;;;;;25.13;39.06;101990.94;20891082;28;20132;-65
2023/05/25 14:00:38;;;;;;;1.80;1.35;;;;;;;25.14;38.65;101978.63;20891292;28;20146;-65
2023/05/25 14:10:42;;;;;;;2.50;1.90;;;;;;;24.88;39.61;101927.44;20893601;28;20072;-65
2023/05/25 14:20:44;;;;;;;2.83;1.80;;;;;;;25.20;39.22;101971.03;20990243;28;20049;-65
2023/05/25 14:30:46;;;;;;;5.07;1.63;;;;;;;25.21;38.83;101979.16;20996673;28;20040;-65
2023/05/25 14:40:52;;;;;;;5.88;1.60;;;;;;;25.24;39.11;101981.38;20975147;28;20040;-65
2023/05/25 14:50:54;;;;;;;4.53;1.50;;;;;;;25.29;38.79;101998.19;20935654;28;20056;-64
2023/05/25 15:00:55;;;;;;;2.72;1.80;;;;;;;25.28;38.80;102002.09;20940940;28;20045;-64
2023/05/25 15:11:17;;;;;;;3.13;1.58;;;;;;;25.27;38.33;102019.19;20950253;28;20082;-64
2023/05/25 15:21:21;;;;;;;3.72;1.63;;;;;;;25.32;38.47;102013.56;20927258;28;20037;-64
2023/05/25 15:31:25;;;;;;;2.72;1.98;;;;;;;25.21;38.57;102015.59;20967156;28;20101;-64
2023/05/25 15:41:27;;;;;;;1.85;1.65;;;;;;;25.05;38.96;101971.88;20913683;28;1791153;-65
2023/05/25 15:51:28;;;;;;;1.60;1.50;;;;;;;25.32;38.99;102011.59;20987431;28;20404;-64
2023/05/25 16:01:35;;;;;;;2.47;1.60;;;;;;;25.34;39.34;101998.16;20992506;28;20101;-65
2023/05/25 16:11:36;;;;;;;3.77;2.10;;;;;;;25.35;39.13;101987.78;21001954;28;20043;-65
2023/05/25 16:21:38;;;;;;;2.10;1.90;;;;;;;25.33;39.44;102004.88;20980595;28;20472;-65
2023/05/25 16:31:39;;;;;;;3.05;2.28;;;;;;;25.34;39.15;101981.34;21014775;28;20048;-65
2023/05/25 16:41:40;;;;;;;3.03;1.85;;;;;;;25.36;39.38;101989.47;21011001;28;20472;-65
2023/05/25 16:51:42;;;;;;;2.83;1.90;;;;;;;25.29;39.30;101961.78;21067539;28;20048;-64
2023/05/25 17:01:46;;;;;;;2.28;1.90;;;;;;;25.39;39.15;101960.06;21015014;28;20032;-65
2023/05/25 17:11:47;;;;;;;2.50;1.70;;;;;;;25.39;38.83;101948.84;21001780;28;20445;-64
2023/05/25 17:21:49;;;;;;;2.33;1.80;;;;;;;25.38;38.41;101947.97;21019457;28;20036;-65
2023/05/25 17:31:50;;;;;;;2.45;1.90;;;;;;;25.32;38.66;101941.56;20971074;28;20658;-65
2023/05/25 17:41:51;;;;;;;2.63;1.85;;;;;;;25.32;38.48;101938.75;20976483;28;20613;-66
2023/05/25 17:51:56;;;;;;;2.70;1.95;;;;;;;25.38;38.61;101913.53;20925417;28;20040;-65
2023/05/25 18:01:57;;;;;;;2.92;2.05;;;;;;;25.41;38.58;101926.97;20997197;28;20330;-65
2023/05/25 18:11:58;;;;;;;7.10;2.38;;;;;;;25.47;39.21;101915.44;20993609;28;20045;-64
2023/05/25 18:22:00;;;;;;;7.80;3.17;;;;;;;25.56;40.17;101926.88;20962724;28;20110;-67
2023/05/25 18:32:01;;;;;;;17.00;3.97;;;;;;;25.70;41.25;101911.09;20999324;28;20048;-65
2023/05/25 18:42:03;;;;;;;10.88;3.45;;;;;;;25.41;41.37;101890.53;21021029;28;20096;-66
2023/05/25 18:52:05;;;;;;;7.00;2.95;;;;;;;25.74;40.85;101909.38;20997519;28;20033;-64
2023/05/25 19:02:07;;;;;;;8.77;2.70;;;;;;;25.72;40.67;101897.63;21018448;28;20040;-65
2023/05/25 19:12:08;;;;;;;4.85;2.38;;;;;;;25.72;40.24;101880.81;20929485;28;20040;-64
2023/05/25 19:22:09;;;;;;;4.15;1.90;;;;;;;25.72;39.16;101869.59;20939199;28;20837;-64
2023/05/25 19:32:11;;;;;;;4.43;2.42;;;;;;;25.66;39.89;101876.38;20993166;28;20565;-65
2023/05/25 19:42:12;;;;;;;7.30;2.65;;;;;;;25.70;39.87;101855.00;20975384;28;20078;-64
2023/05/25 19:52:16;;;;;;;5.88;2.05;;;;;;;25.46;39.72;101828.84;20968183;28;20041;-65
2023/05/25 20:02:18;;;;;;;6.28;2.20;;;;;;;25.57;39.75;101839.72;20962704;28;20043;-65
2023/05/25 20:12:25;;;;;;;5.15;1.90;;;;;;;25.42;39.68;101808.97;20972572;28;20044;-65
2023/05/25 20:22:26;;;;;;;8.73;2.07;;;;;;;25.57;39.84;101830.47;21003686;28;20053;-66
2023/05/25 20:32:28;;;;;;;6.50;2.00;;;;;;;25.58;39.64;101834.94;20946849;28;20044;-66
2023/05/25 20:42:35;;;;;;;8.40;2.28;;;;;;;25.40;39.55;101799.22;21000762;28;20449;-66
2023/05/25 20:52:36;;;;;;;6.67;2.33;;;;;;;25.64;38.99;101844.16;20967320;28;20040;-65
2023/05/25 21:02:40;;;;;;;6.20;2.35;;;;;;;25.62;38.97;101841.66;21003936;28;20492;-65
2023/05/25 21:12:42;;;;;;;6.10;2.00;;;;;;;25.55;38.81;101818.69;20992069;28;20441;-65
2023/05/25 21:22:43;;;;;;;9.38;2.05;;;;;;;25.47;37.65;101805.31;20982951;28;20037;-65
2023/05/25 21:32:45;;;;;;;4.03;2.30;;;;;;;25.59;38.08;101831.00;20967238;28;20483;-66
2023/05/25 21:42:52;;;;;;;5.15;1.90;;;;;;;25.52;37.59;101827.69;20947061;28;20045;-66
2023/05/25 21:52:53;;;;;;;3.58;2.05;;;;;;;25.55;37.40;101846.72;20948369;28;20111;-66
2023/05/25 22:02:54;;;;;;;7.15;2.00;;;;;;;25.56;36.89;101838.03;20955660;28;20040;-66
2023/05/25 22:12:56;;;;;;;21.05;3.53;;;;;;;25.44;37.60;101817.94;20980856;28;20534;-67
2023/05/25 22:22:58;;;;;;;27.00;3.67;;;;;;;25.61;37.62;101845.56;20968074;28;20041;-66
2023/05/25 22:32:59;;;;;;;29.73;4.43;;;;;;;25.62;37.68;101858.47;20997945;28;20441;-68
2023/05/25 22:43:01;;;;;;;11.75;2.38;;;;;;;25.67;38.06;101872.44;20926767;28;20075;-68
2023/05/25 22:53:02;;;;;;;11.93;2.92;;;;;;;25.58;38.17;101857.38;20934087;28;20125;-67
2023/05/25 23:03:03;;;;;;;8.60;2.70;;;;;;;25.70;38.36;101873.81;20957117;28;20113;-67
2023/05/25 23:13:07;;;;;;;35.20;3.85;;;;;;;25.50;37.28;101847.59;20956913;28;20500;-65
2023/05/25 23:23:09;;;;;;;21.80;3.15;;;;;;;25.51;37.19;101888.50;20965533;28;20044;-64
2023/05/25 23:33:13;;;;;;;13.93;2.83;;;;;;;25.53;37.35;101919.06;20977293;28;20395;-67
2023/05/25 23:43:15;;;;;;;6.65;2.35;;;;;;;25.52;37.28;101931.38;20957167;28;20110;-67
2023/05/25 23:53:17;;;;;;;11.80;2.50;;;;;;;25.50;37.40;101928.03;20925800;28;20025;-67
